createdAt,value
2022-08-28T00:00:13.398Z,20.07
2022-08-28T00:01:12.136Z,20.09
2022-08-28T00:02:12.288Z,20.09
2022-08-28T00:03:11.656Z,20.01
2022-08-28T00:04:11.393Z,19.84
2022-08-28T00:05:12.088Z,20.04
2022-08-28T00:06:11.417Z,19.98
2022-08-28T00:07:11.403Z,20.20
2022-08-28T00:08:11.788Z,20.29
2022-08-28T00:09:15.412Z,19.87
2022-08-28T00:10:12.118Z,19.88
2022-08-28T00:11:11.305Z,19.92
2022-08-28T00:12:11.431Z,19.88
2022-08-28T00:13:11.645Z,19.94
2022-08-28T00:14:12.116Z,19.93
2022-08-28T00:15:15.785Z,19.92
2022-08-28T00:16:12.267Z,19.91
2022-08-28T00:17:11.594Z,19.88
2022-08-28T00:18:44.514Z,19.82
2022-08-28T00:19:11.801Z,19.82
2022-08-28T00:20:12.318Z,19.91
2022-08-28T00:21:11.548Z,19.63
2022-08-28T00:22:11.699Z,19.86
2022-08-28T00:23:12.437Z,19.86
2022-08-28T00:24:11.800Z,19.95
2022-08-28T00:25:12.202Z,20.01
2022-08-28T00:26:11.436Z,20.14
2022-08-28T00:27:11.708Z,20.05
2022-08-28T00:28:13.482Z,19.88
2022-08-28T00:29:11.578Z,19.88
2022-08-28T00:30:12.319Z,19.87
2022-08-28T00:31:11.972Z,19.94
2022-08-28T00:32:11.133Z,19.80
2022-08-28T00:33:14.499Z,19.85
2022-08-28T00:34:11.609Z,19.87
2022-08-28T00:35:11.876Z,20.04
2022-08-28T00:36:12.165Z,19.81
2022-08-28T00:37:11.547Z,20.05
2022-08-28T00:38:12.052Z,20.10
2022-08-28T00:39:11.790Z,20.18
2022-08-28T00:40:11.748Z,20.13
2022-08-28T00:41:11.845Z,20.05
2022-08-28T00:42:11.407Z,20.01
2022-08-28T00:43:11.909Z,20.04
2022-08-28T00:44:12.178Z,20.09
2022-08-28T00:45:11.351Z,20.18
2022-08-28T00:46:11.889Z,20.03
2022-08-28T00:47:11.878Z,20.23
2022-08-28T00:48:12.037Z,20.16
2022-08-28T00:49:11.347Z,20.05
2022-08-28T00:50:11.885Z,20.10
2022-08-28T00:51:12.411Z,20.04
2022-08-28T00:52:12.429Z,20.12
2022-08-28T00:53:11.486Z,19.70
2022-08-28T00:54:12.146Z,19.73
2022-08-28T00:55:11.109Z,19.78
2022-08-28T00:56:17.361Z,19.77
2022-08-28T00:57:11.758Z,19.90
2022-08-28T00:58:12.349Z,20.05
2022-08-28T00:59:11.682Z,20.03
2022-08-28T01:00:12.691Z,19.98
2022-08-28T01:01:11.934Z,20.15
2022-08-28T01:02:12.049Z,20.05
2022-08-28T01:03:11.728Z,19.92
2022-08-28T01:04:11.899Z,20.09
2022-08-28T01:05:12.107Z,20.14
2022-08-28T01:06:11.228Z,20.16
2022-08-28T01:07:10.955Z,20.19
2022-08-28T01:08:11.743Z,20.32
2022-08-28T01:09:12.303Z,20.20
2022-08-28T01:10:11.664Z,19.99
2022-08-28T01:11:11.840Z,20.19
2022-08-28T01:12:12.050Z,20.27
2022-08-28T01:13:11.647Z,20.12
2022-08-28T01:14:11.382Z,20.12
2022-08-28T01:15:11.636Z,20.18
2022-08-28T01:16:12.269Z,20.28
2022-08-28T01:17:11.564Z,20.35
2022-08-28T01:18:12.591Z,20.32
2022-08-28T01:19:12.073Z,20.27
2022-08-28T01:20:11.357Z,20.14
2022-08-28T01:21:11.927Z,20.27
2022-08-28T01:22:11.673Z,20.40
2022-08-28T01:23:12.141Z,20.20
2022-08-28T01:24:11.799Z,20.42
2022-08-28T01:25:12.431Z,20.37
2022-08-28T01:26:15.600Z,20.51
2022-08-28T01:27:11.453Z,20.94
2022-08-28T01:28:12.077Z,20.79
2022-08-28T01:29:11.501Z,20.82
2022-08-28T01:30:11.691Z,20.73
2022-08-28T01:31:12.038Z,20.77
2022-08-28T01:32:12.494Z,20.46
2022-08-28T01:33:12.151Z,20.68
2022-08-28T01:34:11.196Z,20.65
2022-08-28T01:35:16.711Z,20.72
2022-08-28T01:36:11.962Z,20.65
2022-08-28T01:37:11.975Z,20.78
2022-08-28T01:38:12.342Z,20.56
2022-08-28T01:39:11.847Z,20.37
2022-08-28T01:40:12.447Z,20.44
2022-08-28T01:41:11.456Z,20.35
2022-08-28T01:42:11.722Z,20.41
2022-08-28T01:43:11.628Z,20.37
2022-08-28T01:44:11.443Z,20.55
2022-08-28T01:45:11.831Z,20.61
2022-08-28T01:46:12.388Z,20.29
2022-08-28T01:47:12.000Z,20.23
2022-08-28T01:48:11.470Z,20.48
2022-08-28T01:49:11.731Z,20.39
2022-08-28T01:50:12.104Z,20.54
2022-08-28T01:51:11.650Z,20.56
2022-08-28T01:52:13.944Z,20.46
2022-08-28T01:53:16.606Z,20.85
2022-08-28T01:54:13.621Z,20.84
2022-08-28T01:55:11.749Z,20.77
2022-08-28T01:56:12.007Z,20.36
2022-08-28T01:57:11.187Z,20.26
2022-08-28T01:58:11.630Z,20.71
2022-08-28T01:59:11.966Z,20.51
2022-08-28T02:00:13.450Z,20.12
2022-08-28T02:01:11.648Z,20.45
2022-08-28T02:02:11.973Z,20.67
2022-08-28T02:03:12.262Z,20.35
2022-08-28T02:04:11.650Z,20.42
2022-08-28T02:05:11.963Z,20.46
2022-08-28T02:06:11.844Z,20.43
2022-08-28T02:07:12.004Z,20.39
2022-08-28T02:08:11.708Z,20.57
2022-08-28T02:09:18.699Z,20.58
2022-08-28T02:10:12.046Z,20.58
2022-08-28T02:11:11.547Z,20.32
2022-08-28T02:12:11.594Z,20.13
2022-08-28T02:13:11.599Z,20.53
2022-08-28T02:14:11.443Z,20.32
2022-08-28T02:15:11.887Z,20.10
2022-08-28T02:16:12.132Z,20.24
2022-08-28T02:17:11.620Z,20.38
2022-08-28T02:18:11.911Z,19.92
2022-08-28T02:19:11.290Z,20.20
2022-08-28T02:20:11.571Z,20.31
2022-08-28T02:21:11.434Z,20.18
2022-08-28T02:22:11.651Z,20.59
2022-08-28T02:23:11.866Z,17
2022-08-28T02:24:11.936Z,20.48
2022-08-28T02:25:12.498Z,20.62
2022-08-28T02:26:11.726Z,20.32
2022-08-28T02:27:11.700Z,20.37
2022-08-28T02:28:12.017Z,20.41
2022-08-28T02:29:11.792Z,20.29
2022-08-28T02:30:12.442Z,20.17
2022-08-28T02:31:11.892Z,20.21
2022-08-28T02:32:12.252Z,20.34
2022-08-28T02:33:11.428Z,20.17
2022-08-28T02:34:11.602Z,16
2022-08-28T02:35:16.012Z,19.92
2022-08-28T02:36:11.208Z,19.86
2022-08-28T02:37:11.401Z,19.85
2022-08-28T02:38:11.620Z,19.47
2022-08-28T02:39:12.092Z,19.62
2022-08-28T02:40:11.589Z,19.64
2022-08-28T02:41:11.683Z,19.81
2022-08-28T02:42:11.458Z,19.82
2022-08-28T02:43:11.818Z,19.71
2022-08-28T02:44:12.025Z,20.06
2022-08-28T02:45:11.422Z,19.95
2022-08-28T02:46:11.817Z,19.72
2022-08-28T02:47:12.256Z,19.97
2022-08-28T02:48:21.361Z,20.21
2022-08-28T02:49:11.510Z,20.21
2022-08-28T02:50:11.741Z,20.46
2022-08-28T02:51:12.374Z,20.14
2022-08-28T02:52:11.642Z,20.14
2022-08-28T02:53:11.876Z,19.86
2022-08-28T02:54:11.835Z,20.03
2022-08-28T02:55:11.746Z,20.10
2022-08-28T02:56:11.904Z,19.95
2022-08-28T02:57:12.352Z,20.02
2022-08-28T02:58:12.062Z,20.05
2022-08-28T02:59:11.546Z,20.03
2022-08-28T03:00:12.554Z,19.77
2022-08-28T03:01:12.012Z,19.62
2022-08-28T03:02:11.350Z,19.54
2022-08-28T03:03:11.529Z,19.69
2022-08-28T03:04:12.101Z,19.74
2022-08-28T03:05:11.942Z,19.69
2022-08-28T03:06:11.881Z,19.57
2022-08-28T03:07:12.041Z,19.77
2022-08-28T03:08:11.362Z,19.62
2022-08-28T03:09:11.882Z,19.85
2022-08-28T03:10:11.938Z,19.89
2022-08-28T03:11:12.298Z,19.72
2022-08-28T03:12:11.886Z,19.75
2022-08-28T03:13:11.714Z,19.72
2022-08-28T03:14:11.802Z,19.92
2022-08-28T03:15:12.339Z,19.76
2022-08-28T03:16:11.778Z,19.84
2022-08-28T03:17:11.940Z,19.72
2022-08-28T03:18:15.226Z,19.92
2022-08-28T03:19:12.236Z,19.86
2022-08-28T03:20:11.421Z,19.87
2022-08-28T03:21:11.884Z,19.73
2022-08-28T03:22:12.004Z,19.82
2022-08-28T03:23:11.161Z,19.73
2022-08-28T03:24:11.287Z,19.73
2022-08-28T03:25:11.760Z,19.78
2022-08-28T03:26:12.643Z,19.71
2022-08-28T03:27:11.856Z,19.70
2022-08-28T03:28:12.185Z,20.01
2022-08-28T03:29:11.780Z,19.88
2022-08-28T03:30:12.718Z,19.94
2022-08-28T03:31:12.141Z,20.08
2022-08-28T03:32:11.588Z,19.95
2022-08-28T03:33:12.319Z,19.84
2022-08-28T03:34:12.189Z,20.02
2022-08-28T03:35:11.610Z,19.78
2022-08-28T03:36:11.647Z,19.81
2022-08-28T03:37:12.018Z,19.70
2022-08-28T03:38:11.366Z,19.69
2022-08-28T03:39:11.767Z,19.61
2022-08-28T03:40:12.310Z,19.58
2022-08-28T03:41:11.517Z,19.58
2022-08-28T03:42:11.602Z,19.68
2022-08-28T03:43:12.154Z,19.61
2022-08-28T03:44:11.143Z,19.72
2022-08-28T03:45:11.610Z,19.94
2022-08-28T03:46:11.631Z,19.79
2022-08-28T03:47:11.651Z,19.96
2022-08-28T03:48:12.167Z,19.79
2022-08-28T03:49:11.559Z,19.71
2022-08-28T03:50:14.705Z,19.78
2022-08-28T03:51:11.959Z,19.62
2022-08-28T03:52:11.344Z,19.69
2022-08-28T03:53:11.646Z,19.53
2022-08-28T03:54:11.965Z,19.77
2022-08-28T03:55:12.366Z,19.5
2022-08-28T03:56:11.599Z,19.62
2022-08-28T03:57:11.831Z,19.65
2022-08-28T03:58:12.032Z,19.81
2022-08-28T03:59:11.602Z,19.71
2022-08-28T04:00:12.780Z,19.81
2022-08-28T04:01:11.890Z,19.87
2022-08-28T04:02:12.132Z,19.83
2022-08-28T04:03:11.624Z,19.78
2022-08-28T04:04:11.915Z,19.74
2022-08-28T04:05:12.002Z,19.72
2022-08-28T04:06:11.389Z,19.72
2022-08-28T04:07:11.716Z,19.64
2022-08-28T04:08:12.241Z,19.59
2022-08-28T04:09:12.118Z,19.55
2022-08-28T04:10:11.716Z,19.68
2022-08-28T04:11:12.116Z,19.61
2022-08-28T04:12:11.235Z,20.04
2022-08-28T04:13:11.627Z,19.57
2022-08-28T04:14:11.594Z,19.65
2022-08-28T04:15:12.202Z,19.87
2022-08-28T04:16:12.033Z,19.68
2022-08-28T04:17:11.673Z,19.66
2022-08-28T04:18:11.786Z,19.51
2022-08-28T04:19:11.944Z,19.60
2022-08-28T04:20:12.475Z,19.60
2022-08-28T04:21:11.878Z,19.53
2022-08-28T04:22:13.418Z,19.66
2022-08-28T04:23:11.945Z,19.65
2022-08-28T04:24:13.658Z,19.62
2022-08-28T04:25:12.405Z,19.63
2022-08-28T04:26:11.614Z,19.78
2022-08-28T04:27:11.995Z,19.62
2022-08-28T04:28:11.879Z,19.54
2022-08-28T04:29:11.824Z,19.62
2022-08-28T04:30:14.093Z,19.79
2022-08-28T04:31:11.684Z,19.92
2022-08-28T04:32:12.452Z,19.68
2022-08-28T04:33:11.895Z,19.84
2022-08-28T04:34:12.237Z,19.64
2022-08-28T04:35:12.048Z,19.73
2022-08-28T04:36:11.936Z,19.76
2022-08-28T04:37:12.528Z,19.82
2022-08-28T04:38:11.853Z,19.70
2022-08-28T04:39:12.283Z,19.76
2022-08-28T04:40:11.817Z,19.79
2022-08-28T04:41:12.264Z,19.88
2022-08-28T04:42:11.871Z,19.76
2022-08-28T04:43:12.319Z,19.65
2022-08-28T04:44:11.959Z,19.70
2022-08-28T04:45:12.638Z,19.53
2022-08-28T04:46:12.008Z,19.42
2022-08-28T04:47:11.383Z,19.52
2022-08-28T04:48:17.615Z,19.60
2022-08-28T04:49:11.904Z,19.59
2022-08-28T04:50:12.237Z,19.56
2022-08-28T04:51:11.819Z,19.88
2022-08-28T04:52:12.137Z,20.02
2022-08-28T04:53:11.725Z,20.12
2022-08-28T04:54:12.219Z,20.07
2022-08-28T04:55:11.615Z,19.88
2022-08-28T04:56:11.807Z,19.90
2022-08-28T04:57:13.225Z,19.97
2022-08-28T04:58:11.819Z,19.88
2022-08-28T04:59:12.206Z,19.71
2022-08-28T05:00:12.395Z,19.78
2022-08-28T05:01:11.928Z,19.67
2022-08-28T05:02:12.504Z,19.70
2022-08-28T05:03:11.771Z,19.64
2022-08-28T05:04:12.176Z,19.62
2022-08-28T05:05:11.625Z,19.78
2022-08-28T05:06:11.864Z,19.71
2022-08-28T05:07:12.346Z,19.94
2022-08-28T05:08:12.057Z,19.82
2022-08-28T05:09:11.504Z,19.90
2022-08-28T05:10:12.159Z,20.03
2022-08-28T05:11:12.053Z,20.12
2022-08-28T05:12:11.512Z,20.17
2022-08-28T05:13:12.007Z,20.29
2022-08-28T05:14:15.398Z,20.36
2022-08-28T05:15:12.510Z,20.20
2022-08-28T05:16:11.763Z,20.33
2022-08-28T05:17:11.533Z,20.22
2022-08-28T05:18:11.522Z,20.59
2022-08-28T05:19:11.915Z,20.46
2022-08-28T05:20:12.454Z,20.40
2022-08-28T05:21:16.461Z,20.23
2022-08-28T05:22:11.739Z,20.11
2022-08-28T05:23:11.989Z,20.20
2022-08-28T05:24:11.499Z,20.98
2022-08-28T05:25:12.065Z,21.21
2022-08-28T05:26:11.269Z,21.35
2022-08-28T05:27:11.914Z,21.45
2022-08-28T05:28:16.206Z,21.55
2022-08-28T05:29:11.455Z,22.17
2022-08-28T05:30:12.418Z,21.90
2022-08-28T05:31:11.945Z,22.13
2022-08-28T05:32:12.471Z,22.31
2022-08-28T05:33:11.737Z,21.95
2022-08-28T05:34:12.535Z,21.61
2022-08-28T05:35:12.536Z,21.12
2022-08-28T05:36:12.249Z,20.82
2022-08-28T05:37:14.508Z,20.73
2022-08-28T05:38:12.360Z,20.62
2022-08-28T05:39:11.960Z,20.48
2022-08-28T05:40:13.039Z,20.31
2022-08-28T05:41:12.099Z,20.71
2022-08-28T05:42:12.212Z,21.08
2022-08-28T05:43:11.554Z,21.12
2022-08-28T05:44:11.883Z,20.56
2022-08-28T05:45:12.419Z,20.95
2022-08-28T05:46:11.711Z,20.86
2022-08-28T05:47:12.457Z,21.34
2022-08-28T05:48:12.123Z,20.98
2022-08-28T05:49:14.495Z,20.78
2022-08-28T05:50:12.073Z,20.39
2022-08-28T05:51:11.531Z,20.34
2022-08-28T05:52:12.207Z,20.37
2022-08-28T05:53:11.622Z,20.54
2022-08-28T05:54:11.966Z,20.98
2022-08-28T05:55:12.580Z,22.21
2022-08-28T05:56:11.625Z,22.49
2022-08-28T05:57:12.017Z,21.94
2022-08-28T05:58:11.262Z,22.30
2022-08-28T05:59:11.432Z,22.51
2022-08-28T06:00:13.085Z,22.59
2022-08-28T06:01:11.768Z,22.13
2022-08-28T06:02:13.046Z,22.38
2022-08-28T06:03:12.008Z,22.43
2022-08-28T06:04:12.324Z,22.18
2022-08-28T06:05:12.954Z,22.42
2022-08-28T06:06:11.945Z,22.62
2022-08-28T06:07:12.609Z,22.45
2022-08-28T06:08:12.428Z,22.68
2022-08-28T06:09:12.353Z,22.89
2022-08-28T06:10:14.869Z,22.56
2022-08-28T06:11:12.506Z,22.45
2022-08-28T06:12:12.341Z,22.67
2022-08-28T06:13:13.236Z,22.79
2022-08-28T06:14:12.102Z,23.05
2022-08-28T06:15:12.151Z,22.93
2022-08-28T06:16:12.079Z,22.53
2022-08-28T06:17:11.723Z,22.30
2022-08-28T06:18:12.403Z,21.37
2022-08-28T06:19:11.705Z,21.15
2022-08-28T06:20:12.190Z,20.95
2022-08-28T06:21:11.726Z,20.97
2022-08-28T06:22:11.874Z,21.38
2022-08-28T06:23:12.334Z,21.90
2022-08-28T06:24:12.229Z,21.93
2022-08-28T06:25:11.946Z,22.40
2022-08-28T06:26:12.122Z,22.47
2022-08-28T06:27:11.565Z,22.53
2022-08-28T06:28:13.247Z,22.54
2022-08-28T06:29:11.619Z,23.86
2022-08-28T06:30:12.896Z,23.70
2022-08-28T06:31:33.416Z,23.87
2022-08-28T06:32:12.273Z,23.87
2022-08-28T06:33:11.592Z,24.21
2022-08-28T06:34:11.836Z,24.67
2022-08-28T06:35:14.487Z,24.56
2022-08-28T06:36:11.698Z,24.60
2022-08-28T06:37:12.061Z,24.44
2022-08-28T06:38:11.904Z,23.68
2022-08-28T06:39:12.596Z,23.07
2022-08-28T06:40:12.108Z,23.45
2022-08-28T06:41:11.383Z,23.59
2022-08-28T06:42:11.947Z,23.34
2022-08-28T06:43:12.153Z,23.48
2022-08-28T06:44:11.867Z,23.63
2022-08-28T06:45:12.267Z,23.79
2022-08-28T06:46:12.005Z,24.23
2022-08-28T06:47:11.598Z,23.98
2022-08-28T06:48:11.958Z,23.29
2022-08-28T06:49:11.641Z,23.47
2022-08-28T06:50:12.324Z,23.81
2022-08-28T06:51:12.193Z,24.54
2022-08-28T06:52:12.099Z,19
2022-08-28T06:53:11.524Z,24.05
2022-08-28T06:54:11.859Z,24.40
2022-08-28T06:55:12.183Z,23.70
2022-08-28T06:56:11.707Z,24.17
2022-08-28T06:57:11.984Z,24.19
2022-08-28T06:58:12.000Z,20
2022-08-28T06:59:11.676Z,24.45
2022-08-28T07:00:13.377Z,24.12
2022-08-28T07:01:12.205Z,24.47
2022-08-28T07:02:12.236Z,24.09
2022-08-28T07:03:11.868Z,22.80
2022-08-28T07:04:12.083Z,22.77
2022-08-28T07:05:12.092Z,22.70
2022-08-28T07:06:12.196Z,22.40
2022-08-28T07:07:13.088Z,22.08
2022-08-28T07:08:12.148Z,22.22
2022-08-28T07:09:11.832Z,22.23
2022-08-28T07:10:12.195Z,21.79
2022-08-28T07:11:11.533Z,21.51
2022-08-28T07:12:12.022Z,21.60
2022-08-28T07:13:11.798Z,22.15
2022-08-28T07:14:12.087Z,22.09
2022-08-28T07:15:11.685Z,21.59
2022-08-28T07:16:12.093Z,21.90
2022-08-28T07:17:11.544Z,21.62
2022-08-28T07:18:12.229Z,21.80
2022-08-28T07:19:14.337Z,22.44
2022-08-28T07:20:12.003Z,21.95
2022-08-28T07:21:16.335Z,22.44
2022-08-28T07:22:11.969Z,21.79
2022-08-28T07:23:12.295Z,22.34
2022-08-28T07:24:12.517Z,21.84
2022-08-28T07:25:12.189Z,21.86
2022-08-28T07:26:11.592Z,21.85
2022-08-28T07:27:14.735Z,21.71
2022-08-28T07:28:11.914Z,21.66
2022-08-28T07:29:15.357Z,21.88
2022-08-28T07:30:12.361Z,22.42
2022-08-28T07:31:12.009Z,22.31
2022-08-28T07:32:11.484Z,22.76
2022-08-28T07:33:12.289Z,22.98
2022-08-28T07:34:11.937Z,22.95
2022-08-28T07:35:12.722Z,22.77
2022-08-28T07:37:18.890Z,23.03
2022-08-28T07:38:12.608Z,22.88
2022-08-28T07:39:12.183Z,22.92
2022-08-28T07:40:15.495Z,22.40
2022-08-28T07:41:12.272Z,22.71
2022-08-28T07:42:11.778Z,23.37
2022-08-28T07:43:12.318Z,23.69
2022-08-28T07:44:12.023Z,23.53
2022-08-28T07:45:11.855Z,23.80
2022-08-28T07:46:13.187Z,23.18
2022-08-28T07:47:12.775Z,23.51
2022-08-28T07:48:16.062Z,23.12
2022-08-28T07:49:11.620Z,22.78
2022-08-28T07:50:12.201Z,23.43
2022-08-28T07:51:11.571Z,23.52
2022-08-28T07:52:11.464Z,23.69
2022-08-28T07:53:11.424Z,24.04
2022-08-28T07:55:12.806Z,24.03
2022-08-28T07:56:12.227Z,23.73
2022-08-28T07:57:11.527Z,24.22
2022-08-28T07:58:11.707Z,23.89
2022-08-28T07:59:13.936Z,23.38
2022-08-28T08:00:13.415Z,23.12
2022-08-28T08:01:11.789Z,23.06
2022-08-28T08:02:12.204Z,22.92
2022-08-28T08:03:12.168Z,23.18
2022-08-28T08:04:11.478Z,23.43
2022-08-28T08:05:11.716Z,23.56
2022-08-28T08:06:11.708Z,23.28
2022-08-28T08:07:12.353Z,23.32
2022-08-28T08:08:11.898Z,23.03
2022-08-28T08:09:11.647Z,22.73
2022-08-28T08:10:13.085Z,22.77
2022-08-28T08:11:16.620Z,22.64
2022-08-28T08:12:14.328Z,22.84
2022-08-28T08:13:12.227Z,23.24
2022-08-28T08:14:11.802Z,23.02
2022-08-28T08:15:12.539Z,23.68
2022-08-28T08:16:12.165Z,24.78
2022-08-28T08:17:11.571Z,25.37
2022-08-28T08:18:12.275Z,25.26
2022-08-28T08:19:11.804Z,25.57
2022-08-28T08:20:12.317Z,25.53
2022-08-28T08:21:11.518Z,25.78
2022-08-28T08:22:11.885Z,25.10
2022-08-28T08:23:12.521Z,24.59
2022-08-28T08:24:13.094Z,25.68
2022-08-28T08:25:12.263Z,26.17
2022-08-28T08:26:11.879Z,26.47
2022-08-28T08:27:12.122Z,26.72
2022-08-28T08:28:13.695Z,27.03
2022-08-28T08:29:12.142Z,26.71
2022-08-28T08:30:12.393Z,26.29
2022-08-28T08:31:12.335Z,26.04
2022-08-28T08:32:11.941Z,25.47
2022-08-28T08:33:12.015Z,26.10
2022-08-28T08:34:11.670Z,27.37
2022-08-28T08:35:12.028Z,27.78
2022-08-28T08:36:11.295Z,28.92
2022-08-28T08:37:11.968Z,28.19
2022-08-28T08:38:12.722Z,23
2022-08-28T08:39:13.844Z,28.96
2022-08-28T08:40:14.920Z,28.62
2022-08-28T08:41:12.398Z,28.31
2022-08-28T08:42:11.817Z,28.39
2022-08-28T08:43:12.262Z,27.29
2022-08-28T08:44:11.996Z,27.29
2022-08-28T08:45:11.981Z,27.31
2022-08-28T08:46:12.410Z,27.28
2022-08-28T08:47:18.329Z,28.13
2022-08-28T08:48:14.880Z,27.56
2022-08-28T08:49:11.249Z,28.55
2022-08-28T08:50:11.700Z,29.38
2022-08-28T08:51:11.632Z,29.70
2022-08-28T08:52:12.197Z,30.20
2022-08-28T08:53:11.519Z,29.55
2022-08-28T08:54:11.770Z,30.98
2022-08-28T08:55:15.161Z,29.35
2022-08-28T08:56:11.318Z,29.20
2022-08-28T08:57:11.639Z,28.37
2022-08-28T08:58:12.253Z,30.03
2022-08-28T08:59:12.038Z,31.62
2022-08-28T09:01:11.637Z,34.58
2022-08-28T09:02:34.836Z,36.18
2022-08-28T09:03:11.825Z,36.18
2022-08-28T09:04:15.696Z,36.59
2022-08-28T09:05:12.491Z,39.70
2022-08-28T09:06:12.118Z,41.20
2022-08-28T09:07:11.367Z,40.09
2022-08-28T09:08:11.634Z,35.79
2022-08-28T09:09:12.136Z,33.79
2022-08-28T09:10:11.658Z,40
2022-08-28T09:11:12.515Z,38.09
2022-08-28T09:12:12.382Z,32.29
2022-08-28T09:13:12.185Z,26.93
2022-08-28T09:14:11.672Z,26.56
2022-08-28T09:15:11.980Z,26.89
2022-08-28T09:16:11.878Z,27.20
2022-08-28T09:17:11.808Z,27.30
2022-08-28T09:18:12.157Z,27.39
2022-08-28T09:19:12.058Z,28.29
2022-08-28T09:20:11.688Z,28.29
2022-08-28T09:21:12.037Z,27.44
2022-08-28T09:22:11.606Z,29.06
2022-08-28T09:23:18.021Z,29.62
2022-08-28T09:24:15.980Z,28.60
2022-08-28T09:25:13.206Z,27.01
2022-08-28T09:26:11.494Z,28.79
2022-08-28T09:27:18.375Z,32.11
2022-08-28T09:28:11.913Z,32.40
2022-08-28T09:29:12.146Z,32.81
2022-08-28T09:30:12.445Z,32.04
2022-08-28T09:31:11.963Z,32.24
2022-08-28T09:32:11.353Z,30.86
2022-08-28T09:33:11.663Z,31.21
2022-08-28T09:34:11.811Z,29.92
2022-08-28T09:35:12.357Z,28.98
2022-08-28T09:36:11.635Z,24
2022-08-28T09:37:13.962Z,28.92
2022-08-28T09:38:11.079Z,29.03
2022-08-28T09:39:11.578Z,27.53
2022-08-28T09:40:12.604Z,27.64
2022-08-28T09:41:12.339Z,24.70
2022-08-28T09:42:11.724Z,21.17
2022-08-28T09:43:11.878Z,21.04
2022-08-28T09:44:11.859Z,20.88
2022-08-28T09:45:13.893Z,21.03
2022-08-28T09:46:11.971Z,21.13
2022-08-28T09:47:11.573Z,21.45
2022-08-28T09:48:12.142Z,21.13
2022-08-28T09:49:11.791Z,20.98
2022-08-28T09:50:12.318Z,20.63
2022-08-28T09:51:11.967Z,20.55
2022-08-28T09:52:12.455Z,20.42
2022-08-28T09:53:12.278Z,20.29
2022-08-28T09:54:11.851Z,20.12
2022-08-28T09:55:12.380Z,20.27
2022-08-28T09:56:11.805Z,19.80
2022-08-28T09:57:12.006Z,19.81
2022-08-28T09:58:11.680Z,19.57
2022-08-28T09:59:11.897Z,19.72
2022-08-28T10:00:13.494Z,19.51
2022-08-28T10:01:11.816Z,19.64
2022-08-28T10:02:12.337Z,19.57
2022-08-28T10:03:11.656Z,19.91
2022-08-28T10:04:12.351Z,19.89
2022-08-28T10:05:11.730Z,19.92
2022-08-28T10:06:12.094Z,19.65
2022-08-28T10:07:11.376Z,19.72
2022-08-28T10:08:12.052Z,19.98
2022-08-28T10:09:12.093Z,19.95
2022-08-28T10:10:11.966Z,19.98
2022-08-28T10:11:11.435Z,20.35
2022-08-28T10:12:11.727Z,20.38
2022-08-28T10:13:12.147Z,20.91
2022-08-28T10:14:11.743Z,20.19
2022-08-28T10:15:12.550Z,19.87
2022-08-28T10:16:11.993Z,20.20
2022-08-28T10:17:11.441Z,20.06
2022-08-28T10:18:11.960Z,19.87
2022-08-28T10:19:11.506Z,19.68
2022-08-28T10:20:11.693Z,19.79
2022-08-28T10:21:11.835Z,19.68
2022-08-28T10:22:11.862Z,19.72
2022-08-28T10:23:17.038Z,20.09
2022-08-28T10:24:12.581Z,19.79
2022-08-28T10:25:11.983Z,19.86
2022-08-28T10:26:11.552Z,19.62
2022-08-28T10:27:11.658Z,19.85
2022-08-28T10:28:11.805Z,19.63
2022-08-28T10:29:11.425Z,19.46
2022-08-28T10:30:17.522Z,19.62
2022-08-28T10:31:12.056Z,19.69
2022-08-28T10:32:11.439Z,19.62
2022-08-28T10:33:11.824Z,19.25
2022-08-28T10:34:11.799Z,19.20
2022-08-28T10:35:12.432Z,19.07
2022-08-28T10:36:36.062Z,19.02
2022-08-28T10:37:11.618Z,19.02
2022-08-28T10:38:12.108Z,19.01
2022-08-28T10:39:11.589Z,18.99
2022-08-28T10:40:12.193Z,18.86
2022-08-28T10:41:11.651Z,18.96
2022-08-28T10:42:11.620Z,19.05
2022-08-28T10:43:11.941Z,19.10
2022-08-28T10:44:12.192Z,19.11
2022-08-28T10:45:12.370Z,19.10
2022-08-28T10:46:11.360Z,19.15
2022-08-28T10:47:11.277Z,19.12
2022-08-28T10:48:11.365Z,19.22
2022-08-28T10:49:11.412Z,19.20
2022-08-28T10:50:11.619Z,19.52
2022-08-28T10:51:11.606Z,19.07
2022-08-28T10:52:11.777Z,19.02
2022-08-28T10:53:12.201Z,19.32
2022-08-28T10:54:11.590Z,19.29
2022-08-28T10:55:11.928Z,19.34
2022-08-28T10:56:12.024Z,19.14
2022-08-28T10:57:11.579Z,19.35
2022-08-28T10:58:28.913Z,19.51
2022-08-28T10:59:12.501Z,19.51
2022-08-28T11:00:13.054Z,19.48
2022-08-28T11:01:11.492Z,19.53
2022-08-28T11:02:11.601Z,19.42
2022-08-28T11:03:37.146Z,19.56
2022-08-28T11:04:11.388Z,19.56
2022-08-28T11:05:12.507Z,19.65
2022-08-28T11:06:12.010Z,19.69
2022-08-28T11:07:11.319Z,19.62
2022-08-28T11:08:11.884Z,19.47
2022-08-28T11:09:12.404Z,19.55
2022-08-28T11:10:12.051Z,19.29
2022-08-28T11:11:11.412Z,19.62
2022-08-28T11:12:12.376Z,19.62
2022-08-28T11:13:17.876Z,19.53
2022-08-28T11:14:11.938Z,19.68
2022-08-28T11:15:12.591Z,19.51
2022-08-28T11:16:11.793Z,19.46
2022-08-28T11:17:14.269Z,19.5
2022-08-28T11:18:11.733Z,19.45
2022-08-28T11:19:12.153Z,19.59
2022-08-28T11:20:11.852Z,19.58
2022-08-28T11:21:11.974Z,19.61
2022-08-28T11:22:12.622Z,19.53
2022-08-28T11:23:13.406Z,19.46
2022-08-28T11:24:12.709Z,19.35
2022-08-28T11:25:14.847Z,19.54
2022-08-28T11:26:12.281Z,19.77
2022-08-28T11:27:11.935Z,19.54
2022-08-28T11:28:11.997Z,19.55
2022-08-28T11:29:11.305Z,19.57
2022-08-28T11:30:12.273Z,19.54
2022-08-28T11:31:19.074Z,19.81
2022-08-28T11:32:12.183Z,19.71
2022-08-28T11:33:11.709Z,19.76
2022-08-28T11:34:12.059Z,19.51
2022-08-28T11:35:25.720Z,19.76
2022-08-28T11:36:12.167Z,19.76
2022-08-28T11:37:14.383Z,20.18
2022-08-28T11:38:11.573Z,20.06
2022-08-28T11:39:11.746Z,20.02
2022-08-28T11:40:12.457Z,19.97
2022-08-28T11:41:12.138Z,19.89
2022-08-28T11:42:11.175Z,19.82
2022-08-28T11:43:11.722Z,19.61
2022-08-28T11:44:12.001Z,19.32
2022-08-28T11:45:12.091Z,19.45
2022-08-28T11:46:11.482Z,19.55
2022-08-28T11:47:12.629Z,19.38
2022-08-28T11:48:12.327Z,19.43
2022-08-28T11:49:11.630Z,19.40
2022-08-28T11:50:12.299Z,19.47
2022-08-28T11:51:11.802Z,19.48
2022-08-28T11:52:12.153Z,19.34
2022-08-28T11:53:11.380Z,19.48
2022-08-28T11:54:11.955Z,19.38
2022-08-28T11:55:12.715Z,19.38
2022-08-28T11:56:13.021Z,19.45
2022-08-28T11:57:12.066Z,19.40
2022-08-28T11:59:13.860Z,19.42
2022-08-28T12:00:13.198Z,19.37
2022-08-28T12:01:11.906Z,19.39
2022-08-28T12:02:12.425Z,19.12
2022-08-28T12:03:11.932Z,19.34
2022-08-28T12:04:12.818Z,19.52
2022-08-28T12:05:12.423Z,19.35
2022-08-28T12:06:11.899Z,19.29
2022-08-28T12:07:12.519Z,19.29
2022-08-28T12:08:12.407Z,19.32
2022-08-28T12:09:12.261Z,19.18
2022-08-28T12:10:12.015Z,19.11
2022-08-28T12:11:11.772Z,18.99
2022-08-28T12:12:11.804Z,19.12
2022-08-28T12:13:12.336Z,19.55
2022-08-28T12:14:11.631Z,19.38
2022-08-28T12:15:12.098Z,19.43
2022-08-28T12:16:12.021Z,19.32
2022-08-28T12:17:12.203Z,19.62
2022-08-28T12:18:11.695Z,19.53
2022-08-28T12:19:12.259Z,19.65
2022-08-28T12:20:11.771Z,19.69
2022-08-28T12:21:12.613Z,19.55
2022-08-28T12:22:11.749Z,19.63
2022-08-28T12:23:12.489Z,19.56
2022-08-28T12:24:18.551Z,19.47
2022-08-28T12:25:11.755Z,19.44
2022-08-28T12:26:11.723Z,19.43
2022-08-28T12:27:12.153Z,19.49
2022-08-28T12:28:17.198Z,19.5
2022-08-28T12:29:11.811Z,19.54
2022-08-28T12:30:13.218Z,19.36
2022-08-28T12:31:12.077Z,19.51
2022-08-28T12:32:11.698Z,19.43
2022-08-28T12:33:12.341Z,19.52
2022-08-28T12:34:12.016Z,16
2022-08-28T12:35:11.531Z,19.38
2022-08-28T12:36:11.548Z,19.32
2022-08-28T12:37:12.035Z,19.29
2022-08-28T12:38:11.806Z,16
2022-08-28T12:39:11.973Z,19.39
2022-08-28T12:40:12.674Z,19.31
2022-08-28T12:41:11.800Z,19.40
2022-08-28T12:42:12.426Z,19.32
2022-08-28T12:43:15.341Z,19.37
2022-08-28T12:44:12.048Z,16
2022-08-28T12:45:11.873Z,19.52
2022-08-28T12:46:23.319Z,19.64
2022-08-28T12:47:11.590Z,19.64
2022-08-28T12:48:11.905Z,19.37
2022-08-28T12:49:12.212Z,19.12
2022-08-28T12:50:11.941Z,19.19
2022-08-28T12:51:12.636Z,19.38
2022-08-28T12:52:12.092Z,19.48
2022-08-28T12:53:12.065Z,19.20
2022-08-28T12:54:11.907Z,19.43
2022-08-28T12:55:12.308Z,19.52
2022-08-28T12:56:11.903Z,19.46
2022-08-28T12:57:12.204Z,19.51